createdAt,value
2018-08-06T00:02:15.420Z,20.30
2018-08-06T00:04:43.825Z,20.20
2018-08-06T00:07:12.325Z,20.20
2018-08-06T00:09:41.489Z,20.10
2018-08-06T00:12:09.979Z,20.10
2018-08-06T00:14:38.849Z,20.00
2018-08-06T00:17:07.621Z,20.00
2018-08-06T00:19:36.238Z,19.90
2018-08-06T00:22:04.768Z,19.90
2018-08-06T00:24:33.253Z,19.80
2018-08-06T00:27:01.762Z,19.70
2018-08-06T00:29:30.231Z,19.70
2018-08-06T00:31:58.996Z,19.70
2018-08-06T00:34:27.569Z,19.60
2018-08-06T00:36:56.184Z,19.70
2018-08-06T00:39:24.609Z,19.70
2018-08-06T00:41:53.668Z,19.50
2018-08-06T00:44:22.860Z,19.60
2018-08-06T00:46:51.315Z,19.70
2018-08-06T00:49:19.748Z,19.70
2018-08-06T00:51:48.281Z,19.50
2018-08-06T00:54:16.800Z,19.50
2018-08-06T00:56:45.385Z,19.50
2018-08-06T00:59:14.004Z,19.50
2018-08-06T01:01:42.502Z,19.50
2018-08-06T01:04:10.969Z,19.60
2018-08-06T01:06:39.408Z,19.50
2018-08-06T01:09:09.337Z,19.40
2018-08-06T01:11:38.308Z,19.50
2018-08-06T01:14:06.932Z,19.50
2018-08-06T01:16:35.375Z,19.50
2018-08-06T01:19:03.907Z,19.40
2018-08-06T01:21:32.398Z,19.30
2018-08-06T01:24:01.653Z,19.20
2018-08-06T01:26:30.440Z,19.10
2018-08-06T01:28:58.932Z,19.00
2018-08-06T01:31:27.397Z,19.00
2018-08-06T01:33:55.833Z,19.10
2018-08-06T01:36:24.315Z,19.20
2018-08-06T01:38:53.394Z,19.10
2018-08-06T01:41:21.848Z,19.10
2018-08-06T01:43:51.044Z,19.20
2018-08-06T01:46:20.127Z,19.20
2018-08-06T01:48:48.652Z,19.20
2018-08-06T01:51:17.136Z,19.10
2018-08-06T01:53:45.565Z,19.10
2018-08-06T01:56:14.028Z,19.10
2018-08-06T01:58:42.548Z,19.00
2018-08-06T02:01:11.053Z,18.90
2018-08-06T02:03:39.658Z,18.60
2018-08-06T02:06:08.088Z,18.60
2018-08-06T02:08:36.540Z,18.50
2018-08-06T02:11:05.093Z,18.40
2018-08-06T02:13:33.774Z,18.40
2018-08-06T02:16:02.333Z,18.30
2018-08-06T02:18:30.809Z,18.20
2018-08-06T02:20:59.208Z,18.20
2018-08-06T02:23:27.629Z,18.10
2018-08-06T02:25:56.136Z,18.00
2018-08-06T02:30:52.919Z,17.90
2018-08-06T02:33:21.374Z,17.90
2018-08-06T02:35:49.842Z,17.90
2018-08-06T02:38:18.307Z,17.90
2018-08-06T02:40:46.897Z,17.80
2018-08-06T02:43:15.365Z,17.80
2018-08-06T02:45:43.946Z,17.80
2018-08-06T02:48:12.432Z,17.70
2018-08-06T02:50:40.888Z,17.70
2018-08-06T02:53:09.391Z,17.70
2018-08-06T02:55:37.859Z,17.80
2018-08-06T02:58:06.623Z,17.80
2018-08-06T03:00:35.058Z,17.90
2018-08-06T03:03:03.535Z,17.90
2018-08-06T03:05:32.008Z,17.90
2018-08-06T03:08:00.459Z,18.10
2018-08-06T03:10:28.971Z,18.00
2018-08-06T03:12:57.390Z,18.10
2018-08-06T03:15:26.409Z,18.00
2018-08-06T03:17:54.869Z,18.10
2018-08-06T03:20:23.321Z,18.10
2018-08-06T03:22:51.792Z,18.10
2018-08-06T03:25:20.204Z,18.10
2018-08-06T03:27:48.688Z,18.10
2018-08-06T03:30:21.625Z,18.10
2018-08-06T03:32:50.669Z,17.70
2018-08-06T03:35:19.100Z,17.70
2018-08-06T03:37:47.585Z,17.70
2018-08-06T03:40:17.274Z,17.80
2018-08-06T03:42:45.669Z,17.70
2018-08-06T03:45:14.106Z,17.50
2018-08-06T03:47:43.646Z,17.50
2018-08-06T03:50:13.545Z,17.50
2018-08-06T03:52:42.250Z,17.50
2018-08-06T03:55:11.418Z,17.30
2018-08-06T03:57:40.325Z,17.30
2018-08-06T04:00:11.525Z,17.40
2018-08-06T04:02:40.469Z,17.40
2018-08-06T04:05:10.776Z,17.40
2018-08-06T04:07:44.040Z,17.40
2018-08-06T04:10:14.638Z,17.40
2018-08-06T04:12:43.088Z,17.40
2018-08-06T04:15:12.077Z,17.40
2018-08-06T04:17:41.624Z,17.40
2018-08-06T04:20:11.077Z,17.50
2018-08-06T04:22:40.220Z,17.60
2018-08-06T04:25:08.684Z,17.60
2018-08-06T04:27:37.606Z,17.80
2018-08-06T04:30:08.341Z,17.80
2018-08-06T04:32:36.876Z,17.90
2018-08-06T04:35:05.320Z,17.90
2018-08-06T04:37:33.881Z,18.00
2018-08-06T04:40:02.322Z,18.00
2018-08-06T04:42:30.749Z,18.10
2018-08-06T04:44:59.244Z,18.00
2018-08-06T04:47:27.653Z,17.90
2018-08-06T04:49:57.014Z,17.90
2018-08-06T04:52:25.758Z,17.70
2018-08-06T04:54:55.042Z,17.40
2018-08-06T04:57:23.540Z,17.30
2018-08-06T04:59:51.976Z,16.50
2018-08-06T05:02:20.426Z,16.50
2018-08-06T05:04:48.901Z,16.50
2018-08-06T05:07:17.345Z,16.50
2018-08-06T05:09:45.908Z,16.60
2018-08-06T05:12:14.385Z,16.60
2018-08-06T05:14:42.824Z,16.60
2018-08-06T05:17:12.021Z,16.70
2018-08-06T05:19:41.429Z,16.60
2018-08-06T05:22:10.529Z,16.70
2018-08-06T05:24:38.992Z,16.80
2018-08-06T05:27:07.490Z,17.00
2018-08-06T05:29:36.057Z,17.20
2018-08-06T05:32:04.571Z,17.40
2018-08-06T05:34:33.022Z,17.50
2018-08-06T05:37:01.449Z,17.70
2018-08-06T05:39:29.916Z,17.90
2018-08-06T05:41:58.405Z,18.30
2018-08-06T05:44:27.589Z,18.20
2018-08-06T05:46:56.865Z,18.50
2018-08-06T05:49:25.406Z,18.80
2018-08-06T05:51:54.125Z,19.00
2018-08-06T05:54:22.688Z,19.20
2018-08-06T05:56:51.161Z,19.10
2018-08-06T05:59:20.756Z,19.20
2018-08-06T06:01:49.214Z,19.00
2018-08-06T06:04:17.718Z,19.20
2018-08-06T06:06:46.197Z,19.40
2018-08-06T06:09:15.476Z,19.70
2018-08-06T06:11:43.990Z,19.90
2018-08-06T06:14:12.496Z,19.90
2018-08-06T06:16:41.053Z,20.00
2018-08-06T06:19:09.586Z,19.60
2018-08-06T06:21:38.243Z,18.60
2018-08-06T06:24:06.792Z,18.30
2018-08-06T06:26:35.275Z,18.20
2018-08-06T06:29:04.597Z,18.40
2018-08-06T06:31:33.100Z,18.50
2018-08-06T06:34:01.817Z,18.70
2018-08-06T06:36:30.273Z,19.10
2018-08-06T06:38:59.039Z,19.10
2018-08-06T06:41:28.313Z,19.20
2018-08-06T06:43:58.241Z,19.40
2018-08-06T06:46:27.017Z,19.30
2018-08-06T06:48:56.521Z,19.40
2018-08-06T06:51:25.814Z,19.70
2018-08-06T06:53:54.560Z,19.90
2018-08-06T06:56:23.025Z,20.10
2018-08-06T06:58:51.837Z,20.30
2018-08-06T07:01:20.317Z,20.60
2018-08-06T07:03:48.800Z,20.70
2018-08-06T07:06:17.984Z,20.70
2018-08-06T07:08:51.463Z,20.80
2018-08-06T07:11:20.659Z,21.00
2018-08-06T07:13:49.420Z,21.10
2018-08-06T07:16:19.743Z,21.20
2018-08-06T07:18:48.232Z,21.20
2018-08-06T07:21:16.755Z,21.50
2018-08-06T07:23:45.775Z,21.40
2018-08-06T07:26:14.620Z,21.60
2018-08-06T07:28:43.082Z,21.70
2018-08-06T07:31:11.594Z,22.00
2018-08-06T07:33:40.066Z,22.00
2018-08-06T07:36:09.373Z,22.20
2018-08-06T07:38:37.885Z,22.40
2018-08-06T07:41:11.457Z,22.50
2018-08-06T07:43:39.932Z,22.80
2018-08-06T07:46:08.440Z,23.00
2018-08-06T07:48:36.872Z,23.10
2018-08-06T07:51:06.126Z,23.10
2018-08-06T07:53:34.604Z,23.30
2018-08-06T07:56:03.761Z,23.60
2018-08-06T07:58:32.206Z,23.90
2018-08-06T08:01:00.997Z,24.00
2018-08-06T08:03:29.504Z,24.30
2018-08-06T08:05:57.956Z,24.40
2018-08-06T08:08:26.475Z,24.40
2018-08-06T08:10:55.024Z,24.70
2018-08-06T08:13:23.472Z,24.80
2018-08-06T08:15:51.943Z,25.00
2018-08-06T08:18:20.447Z,25.10
2018-08-06T08:20:48.928Z,25.30
2018-08-06T08:23:17.404Z,25.60
2018-08-06T08:25:45.922Z,25.80
2018-08-06T08:28:14.728Z,25.80
2018-08-06T08:30:43.265Z,25.50
2018-08-06T08:33:11.757Z,25.80
2018-08-06T08:35:40.298Z,26.40
2018-08-06T08:38:08.781Z,26.60
2018-08-06T08:40:37.242Z,26.60
2018-08-06T08:43:05.723Z,26.50
2018-08-06T08:45:34.269Z,26.50
2018-08-06T08:48:02.721Z,26.20
2018-08-06T08:50:31.353Z,26.30
2018-08-06T08:52:59.815Z,26.50
2018-08-06T08:55:28.688Z,26.50
2018-08-06T08:57:57.187Z,26.60
2018-08-06T09:00:26.340Z,26.60
2018-08-06T09:02:54.852Z,26.70
2018-08-06T09:05:23.485Z,26.40
2018-08-06T09:07:52.588Z,26.30
2018-08-06T09:10:21.336Z,26.60
2018-08-06T09:12:49.932Z,26.80
2018-08-06T09:15:24.608Z,27.10
2018-08-06T09:17:53.044Z,27.10
2018-08-06T09:20:21.638Z,27.20
2018-08-06T09:22:50.088Z,27.20
2018-08-06T09:25:18.648Z,27.40
2018-08-06T09:27:48.512Z,27.50
2018-08-06T09:30:24.550Z,27.50
2018-08-06T09:32:54.437Z,27.60
2018-08-06T09:35:23.141Z,27.70
2018-08-06T09:37:52.028Z,27.90
2018-08-06T09:40:21.793Z,28.40
2018-08-06T09:42:50.786Z,28.80
2018-08-06T09:45:20.569Z,28.90
2018-08-06T09:47:50.417Z,29.00
2018-08-06T09:50:19.656Z,28.80
2018-08-06T09:52:49.377Z,28.70
2018-08-06T09:55:21.438Z,28.60
2018-08-06T09:57:50.799Z,28.80
2018-08-06T10:00:25.713Z,28.90
2018-08-06T10:02:55.414Z,29.00
2018-08-06T10:05:24.874Z,29.20
2018-08-06T10:07:53.476Z,29.40
2018-08-06T10:10:21.988Z,29.00
2018-08-06T10:12:50.438Z,28.80
2018-08-06T10:15:19.416Z,28.40
2018-08-06T10:17:50.689Z,28.60
2018-08-06T10:20:20.677Z,28.90
2018-08-06T10:22:49.450Z,29.50
2018-08-06T10:25:17.984Z,29.40
2018-08-06T10:27:47.285Z,29.80
2018-08-06T10:30:23.193Z,29.30
2018-08-06T10:32:52.179Z,29.10
2018-08-06T10:35:21.200Z,29.50
2018-08-06T10:37:50.318Z,29.80
2018-08-06T10:40:20.981Z,30.20
2018-08-06T10:42:49.504Z,30.20
2018-08-06T10:45:19.104Z,30.10
2018-08-06T10:47:47.893Z,30.20
2018-08-06T10:50:16.373Z,30.50
2018-08-06T10:52:44.855Z,30.60
2018-08-06T10:55:13.772Z,30.60
2018-08-06T10:57:43.372Z,30.50
2018-08-06T11:00:15.094Z,30.50
2018-08-06T11:02:43.646Z,30.50
2018-08-06T11:05:13.406Z,30.70
2018-08-06T11:07:41.920Z,30.80
2018-08-06T11:10:12.327Z,31.20
2018-08-06T11:12:41.282Z,31.20
2018-08-06T11:15:14.325Z,31.50
2018-08-06T11:17:42.996Z,31.40
2018-08-06T11:20:13.662Z,31.40
2018-08-06T11:22:42.456Z,31.30
2018-08-06T11:25:12.405Z,31.30
2018-08-06T11:27:40.950Z,31.40
2018-08-06T11:30:12.446Z,31.80
2018-08-06T11:32:40.928Z,32.00
2018-08-06T11:35:10.333Z,31.90
2018-08-06T11:37:39.115Z,31.80
2018-08-06T11:40:09.006Z,31.90
2018-08-06T11:42:38.324Z,32.10
2018-08-06T11:45:07.702Z,32.20
2018-08-06T11:47:36.852Z,31.80
2018-08-06T11:50:05.991Z,31.60
2018-08-06T11:52:34.482Z,31.10
2018-08-06T11:55:02.968Z,30.70
2018-08-06T11:57:31.380Z,31.10
2018-08-06T11:59:59.929Z,31.20
2018-08-06T12:02:28.589Z,31.40
2018-08-06T12:04:57.030Z,31.60
2018-08-06T12:07:25.525Z,31.80
2018-08-06T12:09:53.989Z,32.00
2018-08-06T12:12:22.460Z,32.10
2018-08-06T12:14:51.143Z,32.20
2018-08-06T12:17:19.651Z,32.30
2018-08-06T12:19:48.148Z,32.40
2018-08-06T12:22:17.412Z,32.30
2018-08-06T12:24:45.828Z,31.90
2018-08-06T12:27:14.347Z,31.70
2018-08-06T12:29:42.773Z,31.90
2018-08-06T12:32:11.229Z,32.00
2018-08-06T12:34:40.384Z,32.30
2018-08-06T12:37:08.874Z,32.30
2018-08-06T12:39:37.317Z,32.30
2018-08-06T12:42:05.831Z,32.20
2018-08-06T12:44:34.369Z,31.90
2018-08-06T12:47:02.953Z,31.80
2018-08-06T12:49:31.352Z,31.90
2018-08-06T12:51:59.904Z,32.00
2018-08-06T12:54:28.314Z,32.00
2018-08-06T12:56:56.733Z,32.20
2018-08-06T12:59:25.285Z,32.10
2018-08-06T13:01:53.762Z,32.20
2018-08-06T13:04:22.207Z,32.20
2018-08-06T13:06:50.696Z,32.10
2018-08-06T13:09:19.368Z,32.10
2018-08-06T13:11:47.816Z,32.00
2018-08-06T13:14:16.909Z,31.90
2018-08-06T13:16:45.410Z,31.80
2018-08-06T13:19:13.829Z,31.70
2018-08-06T13:21:42.284Z,31.90
2018-08-06T13:24:10.773Z,31.90
2018-08-06T13:26:45.860Z,31.90
2018-08-06T13:29:14.437Z,31.80
2018-08-06T13:31:42.941Z,32.00
2018-08-06T13:34:11.865Z,32.10
2018-08-06T13:36:40.368Z,32.10
2018-08-06T13:39:10.098Z,32.10
2018-08-06T13:41:38.975Z,32.20
2018-08-06T13:44:07.495Z,32.20
2018-08-06T13:46:35.980Z,32.30
2018-08-06T13:49:05.392Z,32.40
2018-08-06T13:51:33.811Z,32.60
2018-08-06T13:54:02.291Z,32.80
2018-08-06T13:56:31.586Z,32.90
2018-08-06T13:59:00.017Z,33.00
2018-08-06T14:01:29.201Z,32.90
2018-08-06T14:03:57.670Z,32.90
2018-08-06T14:06:26.152Z,33.30
2018-08-06T14:08:54.649Z,33.70
2018-08-06T14:11:23.161Z,33.80
2018-08-06T14:13:51.635Z,34.50
2018-08-06T14:16:20.198Z,34.60
2018-08-06T14:18:48.716Z,34.70
2018-08-06T14:21:17.279Z,34.20
2018-08-06T14:23:45.719Z,33.80
2018-08-06T14:26:14.189Z,33.50
2018-08-06T14:28:42.719Z,33.20
2018-08-06T14:31:11.176Z,33.20
2018-08-06T14:33:40.412Z,33.00
2018-08-06T14:36:09.659Z,33.00
2018-08-06T14:38:38.069Z,32.90
2018-08-06T14:41:06.546Z,33.00
2018-08-06T14:43:35.070Z,33.10
2018-08-06T14:46:04.116Z,32.90
2018-08-06T14:48:32.611Z,32.80
2018-08-06T14:51:01.061Z,33.00
2018-08-06T14:53:29.684Z,33.20
2018-08-06T14:55:58.388Z,33.00
2018-08-06T14:58:26.776Z,33.00
2018-08-06T15:00:55.248Z,32.90
2018-08-06T15:03:23.727Z,32.70
2018-08-06T15:05:52.161Z,32.50
2018-08-06T15:08:21.261Z,32.40
2018-08-06T15:10:49.742Z,32.30
2018-08-06T15:13:18.209Z,32.30
2018-08-06T15:15:47.270Z,32.40
2018-08-06T15:18:15.705Z,32.40
2018-08-06T15:20:44.148Z,32.40
2018-08-06T15:23:13.405Z,32.40
2018-08-06T15:25:41.902Z,32.30
2018-08-06T15:28:14.334Z,32.20
2018-08-06T15:30:43.817Z,32.10
2018-08-06T15:33:12.336Z,31.90
2018-08-06T15:35:40.798Z,31.90
2018-08-06T15:38:09.246Z,31.90
2018-08-06T15:40:37.688Z,32.00
2018-08-06T15:43:07.002Z,31.80
2018-08-06T15:45:35.428Z,31.80
2018-08-06T15:48:03.839Z,31.70
2018-08-06T15:50:32.356Z,31.50
2018-08-06T15:53:00.824Z,31.40
2018-08-06T15:55:29.456Z,31.40
2018-08-06T15:57:57.918Z,31.40
2018-08-06T16:00:26.404Z,31.40
2018-08-06T16:02:54.853Z,31.60
2018-08-06T16:05:23.856Z,31.60
2018-08-06T16:07:52.334Z,31.50
2018-08-06T16:10:20.779Z,31.50
2018-08-06T16:12:49.232Z,31.40
2018-08-06T16:15:18.456Z,31.30
2018-08-06T16:17:46.885Z,31.30
2018-08-06T16:20:17.570Z,31.40
2018-08-06T16:22:46.136Z,31.30
2018-08-06T16:25:14.837Z,31.20
2018-08-06T16:27:43.404Z,31.20
2018-08-06T16:30:22.354Z,31.10
2018-08-06T16:32:50.925Z,31.20
2018-08-06T16:35:21.161Z,31.10
2018-08-06T16:37:50.380Z,31.10
2018-08-06T16:40:18.868Z,31.10
2018-08-06T16:42:48.138Z,31.20
2018-08-06T16:58:16.721Z,31.20
2018-08-06T17:00:46.068Z,30.70
2018-08-06T17:03:18.429Z,30.80
2018-08-06T17:05:47.657Z,31.00
2018-08-06T17:08:16.134Z,31.00
2018-08-06T17:10:45.654Z,30.80
2018-08-06T17:13:14.135Z,30.80
2018-08-06T17:15:42.856Z,30.70
2018-08-06T17:18:11.340Z,30.60
2018-08-06T17:20:39.867Z,30.60
2018-08-06T17:23:08.324Z,30.50
2018-08-06T17:25:37.381Z,30.40
2018-08-06T17:28:12.059Z,30.40
2018-08-06T17:30:40.568Z,30.30
2018-08-06T17:33:09.109Z,30.40
2018-08-06T17:35:37.600Z,30.40
2018-08-06T17:38:06.163Z,30.50
2018-08-06T17:40:35.008Z,30.40
2018-08-06T17:43:03.535Z,30.30
2018-08-06T17:45:32.022Z,30.30
2018-08-06T17:50:28.809Z,30.10
2018-08-06T17:52:58.134Z,30.10
2018-08-06T17:55:26.591Z,30.00
2018-08-06T17:57:55.173Z,30.10
2018-08-06T18:00:23.716Z,30.20
2018-08-06T18:02:52.289Z,30.10
2018-08-06T18:05:20.943Z,30.00
2018-08-06T18:07:50.014Z,30.00
2018-08-06T18:10:18.910Z,29.90
2018-08-06T18:12:48.823Z,29.90
2018-08-06T18:15:17.298Z,29.90
2018-08-06T18:17:50.929Z,29.80
2018-08-06T18:20:19.881Z,29.80
2018-08-06T18:22:48.674Z,29.70
2018-08-06T18:25:18.483Z,29.60
2018-08-06T18:27:47.970Z,29.60
2018-08-06T18:30:18.281Z,29.40
2018-08-06T18:32:46.969Z,29.30
2018-08-06T18:35:20.289Z,29.30
2018-08-06T18:37:49.257Z,29.30
2018-08-06T18:40:19.076Z,29.30
2018-08-06T18:42:53.009Z,29.20
2018-08-06T18:45:22.204Z,29.00
2018-08-06T18:47:52.330Z,28.90
2018-08-06T18:52:49.788Z,28.80
2018-08-06T18:55:18.567Z,28.90
2018-08-06T18:57:47.801Z,28.90
2018-08-06T19:00:18.731Z,28.80
2018-08-06T19:02:47.370Z,28.80
2018-08-06T19:05:21.153Z,28.70
2018-08-06T19:07:50.080Z,28.60
2018-08-06T19:10:18.637Z,28.50
2018-08-06T19:12:53.187Z,28.40
2018-08-06T19:15:21.626Z,28.30
2018-08-06T19:17:55.454Z,28.30
2018-08-06T19:20:23.930Z,28.20
2018-08-06T19:22:52.498Z,28.10
2018-08-06T19:25:25.286Z,28.00
2018-08-06T19:27:56.543Z,27.90
2018-08-06T19:30:31.137Z,27.90
2018-08-06T19:33:00.358Z,27.70
2018-08-06T19:35:29.854Z,27.70
2018-08-06T19:37:58.430Z,27.70
2018-08-06T19:40:26.886Z,27.70
2018-08-06T19:43:00.541Z,27.70
2018-08-06T19:45:29.004Z,27.60
2018-08-06T19:47:57.505Z,27.60
2018-08-06T19:50:31.139Z,27.50
2018-08-06T19:52:59.604Z,27.50
2018-08-06T19:55:33.332Z,27.40
2018-08-06T19:58:01.829Z,27.40
2018-08-06T20:00:30.286Z,27.30
2018-08-06T20:02:58.809Z,27.20
2018-08-06T20:05:27.363Z,27.10
2018-08-06T20:07:55.829Z,27.00
2018-08-06T20:10:24.338Z,26.90
2018-08-06T20:12:52.813Z,26.80
2018-08-06T20:15:21.256Z,26.80
2018-08-06T20:17:50.227Z,26.70
2018-08-06T20:20:18.636Z,26.80
2018-08-06T20:22:47.157Z,26.70
2018-08-06T20:25:17.848Z,26.70
2018-08-06T20:27:47.380Z,26.80
2018-08-06T20:30:17.569Z,26.80
2018-08-06T20:32:46.081Z,26.70
2018-08-06T20:35:15.983Z,26.70
2018-08-06T20:37:44.495Z,26.60
2018-08-06T20:40:13.033Z,26.50
2018-08-06T20:42:42.780Z,26.50
2018-08-06T20:45:13.382Z,26.50
2018-08-06T20:47:42.903Z,26.50
2018-08-06T20:50:14.261Z,26.30
2018-08-06T20:52:42.787Z,26.20
2018-08-06T20:55:12.584Z,26.10
2018-08-06T20:57:41.553Z,26.00
2018-08-06T21:00:17.425Z,25.90
2018-08-06T21:05:14.744Z,25.80
2018-08-06T21:07:43.205Z,25.80
2018-08-06T21:10:13.653Z,25.80
2018-08-06T21:12:42.035Z,25.70
2018-08-06T21:15:11.782Z,25.70
2018-08-06T21:17:40.327Z,25.60
2018-08-06T21:20:10.992Z,25.60
2018-08-06T21:22:39.551Z,25.60
2018-08-06T21:25:09.597Z,25.60
2018-08-06T21:27:38.587Z,25.50
2018-08-06T21:30:09.845Z,25.50
2018-08-06T21:32:38.328Z,25.40
2018-08-06T21:37:35.538Z,25.50
2018-08-06T21:40:04.017Z,25.50
2018-08-06T21:42:32.541Z,25.50
2018-08-06T21:45:01.008Z,25.50
2018-08-06T21:47:29.550Z,25.50
2018-08-06T21:49:57.985Z,25.50
2018-08-06T21:52:26.449Z,25.40
2018-08-06T21:54:55.227Z,25.30
2018-08-06T21:57:23.696Z,25.10
2018-08-06T21:59:52.219Z,25.10
2018-08-06T22:02:20.776Z,25.00
2018-08-06T22:04:55.874Z,24.90
2018-08-06T22:07:24.380Z,24.80
2018-08-06T22:09:52.849Z,24.80
2018-08-06T22:12:21.345Z,24.80
2018-08-06T22:14:51.180Z,24.70
2018-08-06T22:17:20.305Z,24.50
2018-08-06T22:19:48.800Z,24.50
2018-08-06T22:22:17.221Z,24.50
2018-08-06T22:24:45.703Z,24.50
2018-08-06T22:27:14.134Z,24.50
2018-08-06T22:29:42.615Z,24.40
2018-08-06T22:32:11.072Z,24.30
2018-08-06T22:34:39.591Z,24.20
2018-08-06T22:37:08.029Z,24.20
2018-08-06T22:39:36.558Z,24.20
2018-08-06T22:44:33.720Z,24.20
2018-08-06T22:47:02.196Z,24.30
2018-08-06T22:49:30.657Z,24.40
2018-08-06T22:51:59.103Z,24.30
2018-08-06T22:54:27.544Z,24.30
2018-08-06T22:56:56.017Z,24.30
2018-08-06T22:59:25.084Z,24.30
2018-08-06T23:01:53.608Z,24.30
2018-08-06T23:04:22.021Z,24.30
2018-08-06T23:06:50.564Z,24.20
2018-08-06T23:09:19.065Z,24.10
2018-08-06T23:11:47.649Z,24.10
2018-08-06T23:14:16.105Z,24.10
2018-08-06T23:16:44.697Z,23.90
2018-08-06T23:19:13.124Z,23.90
2018-08-06T23:21:41.587Z,23.80
2018-08-06T23:24:10.045Z,23.80
2018-08-06T23:26:38.989Z,23.90
2018-08-06T23:29:07.420Z,23.90
2018-08-06T23:31:35.869Z,23.90
2018-08-06T23:34:04.357Z,23.80
2018-08-06T23:36:32.772Z,23.70
2018-08-06T23:39:01.213Z,23.70
2018-08-06T23:41:29.817Z,23.70
2018-08-06T23:43:58.232Z,23.70
2018-08-06T23:46:26.797Z,23.60
2018-08-06T23:48:55.862Z,23.60
2018-08-06T23:51:25.061Z,23.50
2018-08-06T23:53:53.522Z,23.50
2018-08-06T23:56:22.058Z,23.40
2018-08-06T23:58:50.451Z,23.40
